Terminal Aerodrome Forecast
Issued by NWS

Home | Current Version | Previous Version | Text Only | Print | Product List | Glossary On
Versions: 1 2 3 4 5 6 7 8 9 10 11 12 13 14 15 16 17 18 19
000
FTUS43 KDLH 082300
TAFHYR
TAF
KHYR 082340Z 0900/0924 32004KT P6SM VCSH SCT040 BKN060
      TEMPO 0900/0904 36012KT -RA BKN040
     FM090800 29003KT P6SM SCT050
     FM091600 28008KT P6SM SCT060=

USA.gov is the U.S. government's official web portal to all federal, state and local government web resources and services.